createdAt,value
2018-11-14T00:02:07.757Z,14.27
2018-11-14T00:04:37.569Z,12.87
2018-11-14T00:07:07.419Z,12.13
2018-11-14T00:09:37.810Z,12.97
2018-11-14T00:12:07.837Z,13.07
2018-11-14T00:14:40.330Z,13.47
2018-11-14T00:17:10.204Z,9.67
2018-11-14T00:19:40.538Z,13.43
2018-11-14T00:22:10.406Z,10.13
2018-11-14T00:24:40.270Z,12.30
2018-11-14T00:27:10.732Z,13.83
2018-11-14T00:29:41.413Z,17.80
2018-11-14T00:32:10.907Z,13.73
2018-11-14T00:34:40.777Z,13.97
2018-11-14T00:37:10.647Z,13.63
2018-11-14T00:39:40.870Z,10.93
2018-11-14T00:42:10.679Z,11.07
2018-11-14T00:44:40.765Z,11.80
2018-11-14T00:47:10.532Z,14.90
2018-11-14T00:49:40.563Z,14.90
2018-11-14T00:52:10.328Z,14.33
2018-11-14T00:54:40.147Z,16.47
2018-11-14T00:57:09.991Z,16.00
2018-11-14T00:59:41.055Z,13.70
2018-11-14T01:02:10.920Z,12.17
2018-11-14T01:04:40.740Z,12.37
2018-11-14T01:07:10.524Z,13.97
2018-11-14T01:09:40.379Z,12.13
2018-11-14T01:12:10.801Z,13.53
2018-11-14T01:14:40.664Z,13.10
2018-11-14T01:17:10.707Z,13.97
2018-11-14T01:19:40.537Z,16.87
2018-11-14T01:22:10.425Z,12.57
2018-11-14T01:24:41.546Z,13.70
2018-11-14T01:27:11.317Z,13.37
2018-11-14T01:29:41.089Z,10.77
2018-11-14T01:32:10.900Z,12.33
2018-11-14T01:34:42.157Z,12.70
2018-11-14T01:37:12.620Z,15.90
2018-11-14T01:39:42.536Z,14.37
2018-11-14T01:42:12.336Z,13.00
2018-11-14T01:44:42.162Z,11.40
2018-11-14T01:47:12.066Z,13.37
2018-11-14T01:50:26.660Z,14.83
2018-11-14T01:52:57.027Z,14.77
2018-11-14T01:55:27.142Z,13.97
2018-11-14T01:58:09.391Z,12.80
2018-11-14T02:00:39.266Z,13.80
2018-11-14T02:03:09.363Z,13.83
2018-11-14T02:05:39.238Z,15.37
2018-11-14T02:08:12.599Z,17.20
2018-11-14T02:10:42.387Z,14.23
2018-11-14T02:13:12.164Z,18.37
2018-11-14T02:15:42.073Z,13.43
2018-11-14T02:18:24.101Z,13.43
2018-11-14T02:20:54.915Z,13.43
2018-11-14T02:23:24.829Z,13.90
2018-11-14T02:25:54.693Z,13.53
2018-11-14T02:28:24.711Z,14.03
2018-11-14T02:30:55.130Z,13.17
2018-11-14T02:33:25.314Z,17.43
2018-11-14T02:35:55.118Z,16.93
2018-11-14T02:38:25.569Z,19.37
2018-11-14T02:40:54.820Z,17.17
2018-11-14T02:43:33.581Z,17.17
2018-11-14T02:46:04.306Z,17.70
2018-11-14T02:48:35.696Z,16.90
2018-11-14T02:51:27.854Z,16.80
2018-11-14T02:53:57.745Z,17.80
2018-11-14T02:56:27.935Z,18.13
2018-11-14T02:58:57.851Z,17.87
2018-11-14T03:01:29.518Z,19.37
2018-11-14T03:03:59.482Z,20.17
2018-11-14T03:06:29.307Z,18.37
2018-11-14T03:08:59.196Z,20.37
2018-11-14T03:11:29.055Z,20.77
2018-11-14T03:13:59.250Z,21.17
2018-11-14T03:16:29.084Z,24.20
2018-11-14T03:18:58.943Z,18.80
2018-11-14T03:21:28.759Z,20.60
2018-11-14T03:24:01.098Z,19.77
2018-11-14T03:26:30.969Z,19.93
2018-11-14T03:29:00.766Z,22.50
2018-11-14T03:31:30.592Z,19.10
2018-11-14T03:34:02.929Z,18.77
2018-11-14T03:36:32.724Z,20.70
2018-11-14T03:39:02.573Z,22.97
2018-11-14T03:41:32.373Z,22.53
2018-11-14T03:44:04.697Z,23.03
2018-11-14T03:46:35.479Z,23.40
2018-11-14T03:49:05.535Z,24.17
2018-11-14T03:51:36.853Z,20.63
2018-11-14T03:54:06.803Z,20.93
2018-11-14T03:56:36.777Z,26.53
2018-11-14T03:59:13.954Z,22.57
2018-11-14T04:01:43.860Z,26.10
2018-11-14T04:04:13.707Z,24.30
2018-11-14T04:06:43.580Z,23.07
2018-11-14T04:09:13.889Z,24.27
2018-11-14T04:11:43.688Z,21.47
2018-11-14T04:14:14.250Z,20.97
2018-11-14T04:16:44.104Z,19.43
2018-11-14T04:19:14.095Z,20.97
2018-11-14T04:21:43.914Z,22.80
2018-11-14T04:24:14.026Z,21.80
2018-11-14T04:26:43.918Z,23.97
2018-11-14T04:29:13.797Z,19.73
2018-11-14T04:31:43.646Z,20.97
2018-11-14T04:34:13.896Z,21.23
2018-11-14T04:36:45.819Z,21.97
2018-11-14T04:39:15.764Z,23.17
2018-11-14T04:41:45.599Z,20.90
2018-11-14T04:44:15.390Z,21.00
2018-11-14T04:46:45.260Z,21.40
2018-11-14T04:49:15.339Z,20.13
2018-11-14T04:51:45.131Z,20.73
2018-11-14T04:54:15.566Z,17.80
2018-11-14T04:56:47.711Z,22.90
2018-11-14T04:59:17.622Z,21.47
2018-11-14T05:01:47.866Z,23.30
2018-11-14T05:04:26.026Z,25.30
2018-11-14T05:06:55.889Z,22.60
2018-11-14T05:09:26.044Z,21.83
2018-11-14T05:11:55.980Z,21.03
2018-11-14T05:14:25.875Z,21.33
2018-11-14T05:16:55.717Z,21.90
2018-11-14T05:19:27.419Z,23.57
2018-11-14T05:21:57.275Z,20.07
2018-11-14T05:24:27.135Z,19.93
2018-11-14T05:26:56.950Z,20.60
2018-11-14T05:29:26.898Z,20.67
2018-11-14T05:31:56.796Z,21.43
2018-11-14T05:34:39.940Z,18.50
2018-11-14T05:37:09.809Z,19.60
2018-11-14T05:39:39.666Z,18.37
2018-11-14T05:42:09.447Z,17.00
2018-11-14T05:44:44.579Z,17.37
2018-11-14T05:47:17.234Z,18.27
2018-11-14T05:49:47.644Z,20.23
2018-11-14T05:52:17.571Z,22.67
2018-11-14T05:54:50.841Z,20.03
2018-11-14T06:11:01.690Z,17.47
2018-11-14T06:13:31.619Z,19.23
2018-11-14T06:16:01.505Z,19.23
2018-11-14T06:18:33.541Z,20.03
2018-11-14T06:21:03.570Z,26.83
2018-11-14T06:23:33.658Z,21.53
2018-11-14T06:26:03.485Z,23.27
2018-11-14T06:28:33.511Z,19.83
2018-11-14T06:31:03.478Z,18.17
2018-11-14T06:33:34.271Z,21.53
2018-11-14T06:36:04.679Z,20.23
2018-11-14T06:38:34.605Z,18.60
2018-11-14T06:41:05.637Z,18.03
2018-11-14T06:43:35.497Z,19.87
2018-11-14T06:46:05.516Z,17.97
2018-11-14T06:48:37.301Z,16.87
2018-11-14T06:51:07.823Z,19.50
2018-11-14T06:53:37.825Z,17.83
2018-11-14T06:56:07.735Z,23.10
2018-11-14T06:58:38.117Z,16.47
2018-11-14T07:01:07.948Z,17.03
2018-11-14T07:03:38.529Z,19.03
2018-11-14T07:06:08.186Z,16.57
2018-11-14T07:08:39.631Z,17.10
2018-11-14T07:11:13.841Z,15.93
2018-11-14T07:13:43.745Z,16.23
2018-11-14T07:16:16.075Z,15.57
2018-11-14T07:18:49.198Z,16.63
2018-11-14T07:21:18.982Z,15.53
2018-11-14T07:23:48.710Z,17.57
2018-11-14T07:26:18.483Z,18.57
2018-11-14T07:28:49.790Z,14.97
2018-11-14T07:31:54.877Z,15.63
2018-11-14T07:34:24.730Z,16.67
2018-11-14T07:36:55.898Z,14.60
2018-11-14T07:39:25.793Z,12.00
2018-11-14T07:41:55.933Z,15.10
2018-11-14T07:44:26.549Z,13.97
2018-11-14T07:47:00.538Z,17.97
2018-11-14T07:49:30.424Z,20.93
2018-11-14T07:52:00.125Z,18.67
2018-11-14T07:54:30.495Z,17.77
2018-11-14T07:57:01.215Z,15.47
2018-11-14T07:59:30.939Z,15.63
2018-11-14T08:02:00.681Z,13.97
2018-11-14T08:04:30.381Z,16.57
2018-11-14T08:07:00.091Z,16.77
2018-11-14T08:09:30.505Z,17.40
2018-11-14T08:12:00.497Z,14.90
2018-11-14T08:14:30.116Z,14.90
2018-11-14T08:17:00.691Z,14.97
2018-11-14T08:19:30.357Z,14.27
2018-11-14T08:22:00.066Z,14.30
2018-11-14T08:24:29.853Z,14.20
2018-11-14T08:26:59.980Z,14.80
2018-11-14T08:29:29.746Z,17.00
2018-11-14T08:31:59.452Z,15.80
2018-11-14T08:34:29.229Z,14.33
2018-11-14T08:36:58.916Z,13.93
2018-11-14T08:39:28.742Z,14.10
2018-11-14T08:41:58.847Z,13.40
2018-11-14T08:44:28.625Z,12.87
2018-11-14T08:46:58.427Z,12.43
2018-11-14T08:49:28.138Z,13.10
2018-11-14T08:51:58.135Z,16.43
2018-11-14T08:54:27.928Z,14.20
2018-11-14T08:56:57.625Z,16.33
2018-11-14T08:59:27.262Z,15.40
2018-11-14T09:01:57.077Z,13.03
2018-11-14T09:04:26.804Z,14.27
2018-11-14T09:06:56.734Z,13.37
2018-11-14T09:09:26.402Z,11.53
2018-11-14T09:11:56.169Z,11.50
2018-11-14T09:14:25.816Z,11.33
2018-11-14T09:16:55.534Z,11.67
2018-11-14T09:19:25.795Z,11.17
2018-11-14T09:21:55.816Z,11.13
2018-11-14T09:24:25.489Z,12.00
2018-11-14T09:26:55.238Z,16.23
2018-11-14T09:29:25.587Z,13.60
2018-11-14T09:31:59.296Z,15.17
2018-11-14T09:34:28.955Z,13.77
2018-11-14T09:36:58.674Z,18.13
2018-11-14T09:39:28.515Z,12.57
2018-11-14T09:41:58.743Z,11.83
2018-11-14T09:44:28.490Z,11.63
2018-11-14T09:46:59.000Z,9.90
2018-11-14T09:49:29.978Z,10.13
2018-11-14T09:52:00.067Z,13.73
2018-11-14T09:54:29.717Z,12.17
2018-11-14T09:56:59.859Z,8.60
2018-11-14T09:59:29.649Z,12.27
2018-11-14T10:01:59.374Z,12.17
2018-11-14T10:04:29.019Z,10.50
2018-11-14T10:06:58.729Z,12.17
2018-11-14T10:09:28.624Z,12.23
2018-11-14T10:11:58.947Z,10.40
2018-11-14T10:14:28.575Z,12.27
2018-11-14T10:16:58.314Z,12.37
2018-11-14T10:19:27.972Z,13.37
2018-11-14T10:21:57.747Z,11.50
2018-11-14T10:24:28.030Z,11.30
2018-11-14T10:26:58.458Z,10.27
2018-11-14T10:29:29.007Z,12.90
2018-11-14T10:31:59.313Z,11.40
2018-11-14T10:34:29.022Z,11.67
2018-11-14T10:36:59.485Z,12.50
2018-11-14T10:39:29.134Z,11.57
2018-11-14T10:42:00.167Z,10.27
2018-11-14T10:44:29.787Z,8.80
2018-11-14T10:46:59.466Z,12.83
2018-11-14T10:49:29.293Z,13.97
2018-11-14T10:51:58.902Z,9.63
2018-11-14T10:54:28.524Z,11.17
2018-11-14T10:56:59.714Z,9.27
2018-11-14T10:59:29.400Z,8.60
2018-11-14T11:02:04.323Z,9.37
2018-11-14T11:04:39.133Z,10.23
2018-11-14T11:07:14.011Z,10.60
2018-11-14T11:09:48.797Z,10.67
2018-11-14T11:12:23.577Z,11.67
2018-11-14T11:18:05.994Z,14.37
2018-11-14T11:20:35.774Z,11.87
2018-11-14T11:23:06.024Z,15.73
2018-11-14T11:25:35.794Z,11.60
2018-11-14T11:28:05.785Z,11.70
2018-11-14T11:30:35.479Z,14.67
2018-11-14T11:33:10.945Z,11.50
2018-11-14T11:35:41.148Z,15.70
2018-11-14T11:38:11.143Z,14.30
2018-11-14T11:40:40.723Z,15.00
2018-11-14T11:43:12.797Z,13.13
2018-11-14T11:45:42.445Z,11.83
2018-11-14T11:48:12.363Z,13.27
2018-11-14T11:50:42.423Z,17.03
2018-11-14T11:53:13.383Z,11.90
2018-11-14T11:55:43.006Z,13.50
2018-11-14T11:58:12.739Z,11.83
2018-11-14T12:00:43.461Z,18.17
2018-11-14T12:03:13.987Z,19.20
2018-11-14T12:05:43.701Z,13.03
2018-11-14T12:08:15.012Z,10.67
2018-11-14T12:10:44.729Z,8.03
2018-11-14T12:13:14.351Z,7.13
2018-11-14T12:15:44.349Z,8.73
2018-11-14T12:18:13.943Z,10.50
2018-11-14T12:20:43.610Z,9.33
2018-11-14T12:23:21.201Z,9.77
2018-11-14T12:25:50.860Z,8.00
2018-11-14T12:28:20.775Z,8.13
2018-11-14T12:30:50.651Z,6.73
2018-11-14T12:33:22.596Z,7.33
2018-11-14T12:35:52.262Z,6.00
2018-11-14T12:38:21.991Z,6.30
2018-11-14T12:40:51.649Z,5.30
2018-11-14T12:43:21.733Z,5.37
2018-11-14T12:45:51.428Z,5.20
2018-11-14T12:48:21.407Z,3.57
2018-11-14T12:50:51.088Z,4.67
2018-11-14T12:53:20.943Z,4.53
2018-11-14T12:55:51.446Z,5.10
2018-11-14T12:58:21.387Z,5.57
2018-11-14T13:00:51.129Z,5.40
2018-11-14T13:03:20.857Z,3.87
2018-11-14T13:05:50.519Z,5.40
2018-11-14T13:08:20.578Z,4.50
2018-11-14T13:10:50.274Z,3.47
2018-11-14T13:13:19.959Z,3.43
2018-11-14T13:15:49.660Z,3.77
2018-11-14T13:18:22.203Z,5.80
2018-11-14T13:20:52.811Z,4.60
2018-11-14T13:23:22.518Z,4.40
2018-11-14T13:25:52.294Z,3.67
2018-11-14T13:28:23.274Z,5.57
2018-11-14T13:30:52.951Z,4.80
2018-11-14T13:33:22.864Z,3.60
2018-11-14T13:35:52.560Z,5.47
2018-11-14T13:38:23.301Z,5.83
2018-11-14T13:40:53.004Z,4.87
2018-11-14T13:43:22.641Z,3.47
2018-11-14T13:45:52.563Z,4.07
2018-11-14T13:48:23.468Z,6.77
2018-11-14T13:50:53.302Z,5.37
2018-11-14T13:53:22.922Z,3.30
2018-11-14T13:55:52.638Z,3.43
2018-11-14T13:58:22.763Z,6.77
2018-11-14T14:00:52.452Z,4.60
2018-11-14T14:03:24.563Z,4.50
2018-11-14T14:05:55.968Z,5.03
2018-11-14T14:08:25.678Z,3.37
2018-11-14T14:10:55.319Z,4.53
2018-11-14T14:13:24.862Z,4.00
2018-11-14T14:15:55.005Z,4.50
2018-11-14T14:18:28.723Z,8.47
2018-11-14T14:20:58.442Z,2.97
2018-11-14T14:23:28.036Z,4.73
2018-11-14T14:25:57.964Z,3.30
2018-11-14T14:28:28.299Z,3.10
2018-11-14T14:30:58.238Z,5.80
2018-11-14T14:33:28.441Z,6.60
2018-11-14T14:35:58.433Z,5.30
2018-11-14T14:38:28.586Z,4.03
2018-11-14T14:40:58.155Z,4.73
2018-11-14T14:43:29.162Z,5.53
2018-11-14T14:45:58.858Z,3.57
2018-11-14T14:48:28.556Z,3.67
2018-11-14T14:50:58.295Z,3.90
2018-11-14T14:53:29.446Z,5.30
2018-11-14T14:55:59.103Z,4.03
2018-11-14T14:58:28.671Z,2.47
2018-11-14T15:00:58.329Z,2.50
2018-11-14T15:03:29.296Z,3.07
2018-11-14T15:05:59.151Z,2.43
2018-11-14T15:08:28.833Z,4.43
2018-11-14T15:10:58.564Z,2.30
2018-11-14T15:13:28.176Z,2.93
2018-11-14T15:15:58.427Z,3.70
2018-11-14T15:18:30.478Z,5.47
2018-11-14T15:21:00.642Z,5.00
2018-11-14T15:23:30.295Z,3.57
2018-11-14T15:26:00.243Z,2.73
2018-11-14T15:28:30.313Z,4.43
2018-11-14T15:31:00.000Z,3.20
2018-11-14T15:33:29.927Z,4.47
2018-11-14T15:36:00.566Z,5.13
2018-11-14T15:38:30.223Z,6.10
2018-11-14T15:41:00.119Z,12.17
2018-11-14T15:43:30.190Z,3.73
2018-11-14T15:45:59.871Z,4.17
2018-11-14T15:48:29.555Z,6.10
2018-11-14T15:50:59.636Z,7.60
2018-11-14T15:53:31.574Z,5.07
2018-11-14T15:56:01.524Z,5.17
2018-11-14T15:58:31.154Z,5.73
2018-11-14T16:01:00.789Z,4.50
2018-11-14T16:03:30.440Z,3.67
2018-11-14T16:06:01.255Z,5.00
2018-11-14T16:08:32.238Z,3.73
2018-11-14T16:11:01.868Z,5.27
2018-11-14T16:13:31.556Z,5.43
2018-11-14T16:16:01.634Z,9.93
2018-11-14T16:18:31.289Z,7.20
2018-11-14T16:21:01.109Z,4.60
2018-11-14T16:23:32.093Z,6.37
2018-11-14T16:26:01.767Z,4.70
2018-11-14T16:28:31.344Z,5.00
2018-11-14T16:31:00.982Z,6.03
2018-11-14T16:33:30.847Z,5.93
2018-11-14T16:36:00.900Z,5.53
2018-11-14T16:38:30.917Z,6.80
2018-11-14T16:41:01.610Z,9.27
2018-11-14T16:43:31.257Z,8.43
2018-11-14T16:46:00.965Z,6.93
2018-11-14T16:48:30.738Z,10.57
2018-11-14T16:51:00.943Z,8.23
2018-11-14T16:53:30.953Z,5.50
2018-11-14T16:56:00.778Z,5.73
2018-11-14T16:58:30.579Z,6.70
2018-11-14T17:01:00.277Z,11.37
2018-11-14T17:03:30.399Z,6.77
2018-11-14T17:06:00.823Z,5.70
2018-11-14T17:08:30.603Z,8.60
2018-11-14T17:11:00.231Z,7.93
2018-11-14T17:13:30.051Z,8.40
2018-11-14T17:15:59.691Z,8.53
2018-11-14T17:18:29.686Z,10.03
2018-11-14T17:20:59.939Z,10.37
2018-11-14T17:23:29.635Z,9.53
2018-11-14T17:25:59.460Z,8.20
2018-11-14T17:28:34.635Z,9.87
2018-11-14T17:31:04.332Z,8.97
2018-11-14T17:33:36.375Z,8.87
2018-11-14T17:36:06.270Z,9.13
2018-11-14T17:38:35.919Z,8.60
2018-11-14T17:41:05.623Z,8.63
2018-11-14T17:43:36.599Z,10.87
2018-11-14T17:46:06.767Z,8.03
2018-11-14T17:48:36.569Z,10.23
2018-11-14T17:51:06.519Z,10.97
2018-11-14T17:53:36.324Z,14.30
2018-11-14T17:56:06.176Z,13.57
2018-11-14T17:58:35.880Z,12.07
2018-11-14T18:01:05.963Z,12.47
2018-11-14T18:03:36.269Z,12.93
2018-11-14T18:06:08.410Z,11.83
2018-11-14T18:08:38.224Z,13.27
2018-11-14T18:11:08.424Z,12.40
2018-11-14T18:13:38.588Z,13.50
2018-11-14T18:16:08.593Z,14.70
2018-11-14T18:18:38.504Z,14.37
2018-11-14T18:21:09.451Z,15.07
2018-11-14T18:23:39.169Z,13.20
2018-11-14T18:26:09.460Z,13.90
2018-11-14T18:28:39.289Z,14.00
2018-11-14T18:31:09.200Z,16.90
2018-11-14T18:33:39.840Z,15.23
2018-11-14T18:36:15.082Z,16.80
2018-11-14T18:38:44.903Z,14.67
2018-11-14T18:41:33.185Z,17.43
2018-11-14T18:44:18.205Z,13.37
2018-11-14T18:46:48.239Z,14.23
2018-11-14T18:49:20.971Z,15.27
2018-11-14T18:51:52.066Z,18.10
2018-11-14T18:54:22.203Z,19.63
2018-11-14T18:56:52.319Z,17.93
2018-11-14T18:59:22.672Z,14.43
2018-11-14T19:02:12.668Z,16.27
2018-11-14T19:04:42.656Z,16.13
2018-11-14T19:07:21.800Z,16.80
2018-11-14T19:09:51.868Z,17.60
2018-11-14T19:12:21.700Z,17.87
2018-11-14T19:14:51.790Z,22.03
2018-11-14T19:17:22.277Z,18.83
2018-11-14T19:19:52.336Z,22.23
2018-11-14T19:22:41.662Z,20.17
2018-11-14T19:25:13.275Z,19.60
2018-11-14T19:27:44.138Z,17.93
2018-11-14T19:30:15.636Z,17.63
2018-11-14T19:32:46.480Z,20.57
2018-11-14T19:35:17.914Z,19.50
2018-11-14T19:37:49.648Z,18.60
2018-11-14T19:40:26.347Z,19.47
2018-11-14T19:42:57.293Z,20.57
2018-11-14T19:45:28.697Z,22.17
2018-11-14T19:47:58.433Z,20.77
2018-11-14T19:50:29.684Z,22.57
2018-11-14T19:53:00.589Z,21.37
2018-11-14T19:55:31.074Z,23.27
2018-11-14T19:58:02.699Z,24.23
2018-11-14T20:00:35.584Z,24.90
2018-11-14T20:03:11.379Z,21.20
2018-11-14T20:05:41.472Z,24.37
2018-11-14T20:08:11.500Z,23.17
2018-11-14T20:10:45.114Z,29.07
2018-11-14T20:13:17.444Z,25.90
2018-11-14T20:15:47.410Z,29.53
2018-11-14T20:18:17.416Z,30.20
2018-11-14T20:20:48.585Z,32.13
2018-11-14T20:23:19.279Z,31.47
2018-11-14T20:25:49.034Z,32.27
2018-11-14T20:28:19.018Z,31.37
2018-11-14T20:30:51.825Z,36.43
2018-11-14T20:33:53.387Z,31.57
2018-11-14T20:36:23.447Z,35.90
2018-11-14T20:52:36.478Z,36.40
2018-11-14T20:55:12.641Z,32.40
2018-11-14T20:57:43.202Z,32.27
2018-11-14T21:00:36.381Z,32.93
2018-11-14T21:03:07.288Z,36.70
2018-11-14T21:05:37.450Z,40.63
2018-11-14T21:08:08.676Z,52.93
2018-11-14T21:10:38.594Z,39.07
2018-11-14T21:13:08.528Z,40.27
2018-11-14T21:15:45.373Z,37.17
2018-11-14T21:18:15.395Z,35.60
2018-11-14T21:20:45.092Z,32.23
2018-11-14T21:23:15.727Z,33.80
2018-11-14T21:25:45.865Z,36.20
2018-11-14T21:28:15.883Z,34.43
2018-11-14T21:30:45.652Z,35.03
2018-11-14T21:33:15.490Z,34.40
2018-11-14T21:35:45.660Z,36.57
2018-11-14T21:38:15.494Z,36.07
2018-11-14T21:40:46.792Z,32.10
2018-11-14T21:43:16.645Z,36.87
2018-11-14T21:45:47.544Z,38.97
2018-11-14T21:48:18.305Z,34.70
2018-11-14T21:50:48.055Z,30.90
2018-11-14T21:53:18.363Z,32.37
2018-11-14T21:55:48.355Z,29.33
2018-11-14T21:58:18.015Z,26.80
2018-11-14T22:00:47.677Z,30.47
2018-11-14T22:03:17.922Z,31.80
2018-11-14T22:05:47.639Z,33.00
2018-11-14T22:08:19.636Z,31.43
2018-11-14T22:10:49.668Z,31.33
2018-11-14T22:13:19.476Z,31.00
2018-11-14T22:15:49.253Z,30.93
2018-11-14T22:18:19.039Z,30.77
2018-11-14T22:20:48.761Z,31.83
2018-11-14T22:23:18.730Z,32.77
2018-11-14T22:25:48.640Z,30.30
2018-11-14T22:28:18.466Z,34.57
2018-11-14T22:30:48.872Z,33.20
2018-11-14T22:33:18.684Z,34.63
2018-11-14T22:35:49.832Z,31.33
2018-11-14T22:38:19.615Z,32.47
2018-11-14T22:43:21.009Z,31.90
2018-11-14T22:45:50.832Z,33.33
2018-11-14T22:48:20.871Z,31.47
2018-11-14T22:50:50.565Z,38.43
2018-11-14T22:53:20.335Z,37.43
2018-11-14T22:55:50.069Z,31.27
2018-11-14T22:58:19.788Z,30.47
2018-11-14T23:00:49.530Z,32.93
2018-11-14T23:03:19.232Z,28.80
2018-11-14T23:05:49.274Z,34.43
2018-11-14T23:08:19.200Z,34.63
2018-11-14T23:10:49.380Z,31.53
2018-11-14T23:13:19.178Z,35.03
2018-11-14T23:15:48.920Z,37.33
2018-11-14T23:18:18.697Z,43.63
2018-11-14T23:20:49.363Z,37.90
2018-11-14T23:23:19.515Z,34.50
2018-11-14T23:25:49.143Z,38.83
2018-11-14T23:28:18.857Z,38.30
2018-11-14T23:30:48.625Z,29.60
2018-11-14T23:33:18.540Z,35.20
2018-11-14T23:35:49.242Z,33.33
2018-11-14T23:38:19.195Z,29.37
2018-11-14T23:40:48.955Z,32.37
2018-11-14T23:43:46.937Z,31.03
2018-11-14T23:46:17.190Z,28.40
2018-11-14T23:48:47.463Z,30.23
2018-11-14T23:51:17.302Z,32.60
2018-11-14T23:53:47.434Z,32.87
2018-11-14T23:56:17.140Z,26.30
2018-11-14T23:58:46.853Z,24.67
